Time;durP1;ratioP1;P1;durP2;ratioP2;P2;SDS_P1;SDS_P2;PMS_P1;PMS_P2;Temp;Humidity;BMP_temperature;BMP_pressure;BME280_temperature;BME280_humidity;BME280_pressure;Samples;Min_cycle;Max_cycle;Signal;HPM_P1;HPM_P2
2020/12/17 00:00:43;;;;;;;22.50;12.50;;;;;;;5.05;80.26;102858.34;1735744;82;21391;-81
2020/12/17 00:03:18;;;;;;;;;;;;;;;4.98;80.22;102860.56;1737978;82;21245;-81
2020/12/17 00:05:50;;;;;;;28.73;13.30;;;;;;;4.97;80.48;102865.22;1700233;84;20245;-74
2020/12/17 00:08:23;;;;;;;29.05;13.75;;;;;;;5.03;80.50;102861.78;1758845;81;21683;-74
2020/12/17 00:10:55;;;;;;;24.60;12.60;;;;;;;5.05;80.31;102858.84;1753710;82;21810;-74
2020/12/17 00:13:28;;;;;;;21.07;11.00;;;;;;;5.06;80.25;102854.55;1735822;82;21350;-73
2020/12/17 00:16:03;;;;;;;21.77;10.97;;;;;;;5.06;80.03;102855.08;1735836;82;21860;-81
2020/12/17 00:18:36;;;;;;;17.90;10.23;;;;;;;4.95;80.10;102847.16;1735746;82;21362;-80
2020/12/17 00:21:09;;;;;;;21.93;11.40;;;;;;;4.93;80.33;102851.45;1735925;82;21354;-81
2020/12/17 00:23:43;;;;;;;19.33;10.83;;;;;;;4.91;80.34;102856.77;1732374;82;21213;-82
2020/12/17 00:26:15;;;;;;;19.70;9.70;;;;;;;4.89;80.28;102856.09;1735556;82;21406;-82
2020/12/17 00:28:48;;;;;;;21.57;11.53;;;;;;;4.80;80.27;102859.34;1746794;81;21338;-82
2020/12/17 00:31:20;;;;;;;22.33;11.50;;;;;;;4.68;80.51;102848.81;1729001;83;21677;-81
2020/12/17 00:33:53;;;;;;;19.95;11.68;;;;;;;4.60;80.84;102844.69;1707428;84;21196;-81
2020/12/17 00:36:26;;;;;;;25.80;12.78;;;;;;;4.60;81.06;102841.94;1723466;83;21244;-81
2020/12/17 00:39:00;;;;;;;20.63;10.80;;;;;;;4.68;81.30;102841.44;1704933;84;21218;-82
2020/12/17 00:41:35;;;;;;;19.80;10.73;;;;;;;4.80;81.15;102846.97;1705180;84;21205;-83
2020/12/17 00:44:08;;;;;;;21.47;11.50;;;;;;;4.81;81.06;102844.55;1679721;84;21668;-82
2020/12/17 00:46:41;;;;;;;23.40;11.78;;;;;;;4.86;81.17;102844.03;1723210;83;21208;-82
2020/12/17 00:49:13;;;;;;;23.90;12.53;;;;;;;4.99;81.27;102847.14;1723138;83;21763;-81
2020/12/17 00:51:46;;;;;;;22.57;13.50;;;;;;;5.16;81.16;102847.49;1705176;84;21336;-81
2020/12/17 00:54:19;;;;;;;22.67;11.67;;;;;;;5.30;80.76;102843.53;1723476;83;21766;-81
2020/12/17 00:56:51;;;;;;;22.87;12.27;;;;;;;5.36;80.33;102837.33;1723272;83;21184;-80
2020/12/17 00:59:24;;;;;;;21.90;12.13;;;;;;;5.42;80.11;102828.88;1704876;84;21411;-74
2020/12/17 01:01:58;;;;;;;20.87;11.50;;;;;;;5.47;80.07;102826.47;1754491;81;21201;-82
2020/12/17 01:04:41;;;;;;;25.40;12.40;;;;;;;5.50;79.78;102835.23;1756764;82;21221;-80
2020/12/17 01:07:13;;;;;;;20.33;10.90;;;;;;;5.42;79.59;102827.50;1755228;81;21181;-81
2020/12/17 01:09:44;;;;;;;18.47;10.20;;;;;;;5.31;79.56;102833.39;1756440;82;21201;-81
2020/12/17 01:12:17;;;;;;;17.35;9.18;;;;;;;5.15;79.65;102831.51;1756953;82;21831;-80
2020/12/17 01:14:53;;;;;;;17.70;9.83;;;;;;;5.05;79.96;102828.56;1756527;82;21247;-81
2020/12/17 01:17:26;;;;;;;17.27;10.27;;;;;;;4.96;80.18;102824.10;1756591;82;21236;-80
2020/12/17 01:19:59;;;;;;;24.57;13.00;;;;;;;4.92;80.49;102832.34;1756745;82;21407;-81
2020/12/17 01:22:31;;;;;;;19.20;10.60;;;;;;;4.96;80.62;102835.11;1756465;82;21197;-81
2020/12/17 01:25:06;;;;;;;34.93;18.07;;;;;;;5.06;80.79;102833.06;1756626;82;21192;-81
2020/12/17 01:27:39;;;;;;;37.37;20.57;;;;;;;5.13;80.67;102829.42;1756493;82;21197;-74
2020/12/17 01:30:12;;;;;;;34.67;18.85;;;;;;;5.15;80.81;102830.13;1753498;81;21715;-75
2020/12/17 01:32:45;;;;;;;44.27;22.00;;;;;;;5.21;80.77;102829.44;1735551;82;21340;-75
2020/12/17 01:35:21;;;;;;;49.63;23.60;;;;;;;5.17;80.76;102816.17;1735530;82;21834;-75
2020/12/17 01:37:53;;;;;;;;;;;;;;;5.19;80.87;102819.63;1738192;82;21386;-75
2020/12/17 01:40:25;;;;;;;43.50;22.20;;;;;;;5.24;80.91;102818.56;1699889;84;20229;-74
2020/12/17 01:42:58;;;;;;;46.33;22.10;;;;;;;5.26;81.00;102822.87;1758534;81;21197;-74
2020/12/17 01:45:31;;;;;;;;;;;;;;;5.31;80.90;102821.00;1755550;82;22283;-74
2020/12/17 01:48:03;;;;;;;50.80;22.87;;;;;;;5.30;80.94;102820.13;1753179;82;20579;-74
2020/12/17 01:50:42;;;;;;;49.70;23.93;;;;;;;5.34;81.03;102823.39;1752965;82;21795;-75
2020/12/17 01:53:16;;;;;;;46.00;23.63;;;;;;;5.27;80.92;102824.62;1727420;82;21850;-74
2020/12/17 01:55:49;;;;;;;46.70;24.43;;;;;;;5.23;80.92;102816.85;1752975;82;21336;-74
2020/12/17 01:58:24;;;;;;;42.27;22.20;;;;;;;5.19;81.08;102819.63;1753398;82;21366;-74
2020/12/17 02:00:57;;;;;;;48.17;25.70;;;;;;;5.20;81.32;102819.97;1753200;82;21331;-74
2020/12/17 02:03:29;;;;;;;42.10;22.37;;;;;;;5.20;81.37;102818.59;1752964;82;21680;-75
2020/12/17 02:06:14;;;;;;;;;;;;;;;;;;;;;
2020/12/17 02:08:39;;;;;;;42.33;21.37;;;;;;;5.18;81.42;102811.00;1751002;80;21391;-74
2020/12/17 02:11:13;;;;;;;40.87;20.20;;;;;;;5.19;81.44;102812.75;1752929;82;21332;-74
2020/12/17 02:13:46;;;;;;;43.50;23.57;;;;;;;5.15;81.37;102814.99;1753019;82;21327;-74
2020/12/17 02:16:19;;;;;;;45.50;23.30;;;;;;;5.06;81.44;102817.39;1753461;82;21233;-74
2020/12/17 02:18:52;;;;;;;47.60;23.20;;;;;;;5.00;81.65;102813.11;1752810;82;21241;-74
2020/12/17 02:21:25;;;;;;;45.43;22.90;;;;;;;4.98;81.90;102815.14;1753143;82;21359;-75
2020/12/17 02:23:57;;;;;;;44.38;24.15;;;;;;;4.99;82.00;102819.61;1753080;82;21390;-73
2020/12/17 02:26:30;;;;;;;44.87;24.10;;;;;;;5.00;82.18;102818.07;1753005;82;21791;-73
2020/12/17 02:29:03;;;;;;;49.77;24.97;;;;;;;5.07;82.28;102812.75;1752958;82;21735;-74
2020/12/17 02:31:37;;;;;;;47.37;23.47;;;;;;;5.21;82.41;102820.31;1753007;82;21794;-74
2020/12/17 02:34:15;;;;;;;47.60;24.67;;;;;;;5.33;82.40;102820.30;1753018;82;21823;-74
2020/12/17 02:36:48;;;;;;;46.90;23.40;;;;;;;5.38;82.23;102822.02;1753089;82;21375;-74
2020/12/17 02:39:21;;;;;;;43.73;24.00;;;;;;;5.50;82.22;102824.75;1753149;82;21339;-75
2020/12/17 02:41:54;;;;;;;45.90;24.37;;;;;;;5.64;82.08;102819.89;1752862;82;21826;-73
2020/12/17 02:44:27;;;;;;;44.43;23.70;;;;;;;5.72;81.91;102826.24;1753281;82;21685;-74
2020/12/17 02:46:59;;;;;;;43.83;21.97;;;;;;;5.77;81.60;102828.47;1753429;82;21190;-75
2020/12/17 02:49:36;;;;;;;42.60;23.03;;;;;;;5.79;81.41;102818.98;1752934;82;21355;-74
2020/12/17 02:52:20;;;;;;;;;;;;;;;;;;;;;
2020/12/17 02:54:45;;;;;;;34.73;19.40;;;;;;;5.73;81.19;102817.47;1750742;82;21435;-74
2020/12/17 02:57:18;;;;;;;34.80;19.00;;;;;;;5.73;81.27;102816.94;1753099;82;21345;-74
2020/12/17 02:59:52;;;;;;;33.77;18.00;;;;;;;5.68;81.11;102819.89;1752903;82;21340;-75
2020/12/17 03:02:25;;;;;;;27.70;15.72;;;;;;;5.70;81.41;102821.94;1752820;82;21775;-73
2020/12/17 03:05:00;;;;;;;34.55;18.85;;;;;;;5.74;81.33;102831.05;1753432;82;21371;-74
2020/12/17 03:07:33;;;;;;;33.83;17.87;;;;;;;5.65;81.05;102829.87;1753109;82;21229;-74
2020/12/17 03:10:12;;;;;;;31.97;17.87;;;;;;;5.65;81.38;102829.87;1753191;82;22197;-74
2020/12/17 03:12:46;;;;;;;33.63;18.57;;;;;;;5.74;81.52;102826.08;1753263;82;21384;-75
2020/12/17 03:15:18;;;;;;;44.23;24.90;;;;;;;5.77;81.16;102840.36;1752953;82;21178;-75
2020/12/17 03:17:51;;;;;;;38.70;21.23;;;;;;;5.67;81.18;102836.93;1753168;82;21240;-74
2020/12/17 03:20:24;;;;;;;35.17;20.80;;;;;;;5.62;81.21;102846.77;1753166;82;21217;-74
2020/12/17 03:22:56;;;;;;;30.97;18.70;;;;;;;5.54;81.17;102842.63;1753048;82;21355;-74
2020/12/17 03:25:32;;;;;;;30.50;19.03;;;;;;;5.50;81.36;102835.23;1752899;82;21320;-73
2020/12/17 03:28:05;;;;;;;40.00;21.70;;;;;;;5.45;81.31;102834.05;1753136;82;21332;-74
2020/12/17 03:30:39;;;;;;;30.87;17.90;;;;;;;5.39;81.39;102840.25;1753260;82;21339;-73
2020/12/17 03:33:13;;;;;;;30.43;18.25;;;;;;;5.36;81.56;102848.85;1728531;82;21711;-74
2020/12/17 03:35:47;;;;;;;34.40;19.17;;;;;;;5.30;81.61;102842.66;1723106;83;22099;-73
2020/12/17 03:38:23;;;;;;;33.40;18.77;;;;;;;5.29;81.92;102833.55;1704334;84;21748;-74
2020/12/17 03:40:56;;;;;;;39.53;21.00;;;;;;;5.36;82.04;102836.45;1756525;81;21217;-73
2020/12/17 03:43:28;;;;;;;31.67;18.57;;;;;;;5.36;82.11;102841.97;1756512;82;21224;-74
2020/12/17 03:46:01;;;;;;;44.40;24.00;;;;;;;5.41;82.17;102834.05;1756521;82;21162;-73
2020/12/17 03:48:35;;;;;;;37.55;20.62;;;;;;;5.39;82.11;102834.75;1756487;81;21162;-73
2020/12/17 03:51:07;;;;;;;38.17;21.73;;;;;;;5.44;82.20;102835.09;1756568;82;21192;-73
2020/12/17 03:53:40;;;;;;;36.33;22.67;;;;;;;5.52;82.31;102833.69;1756396;82;21676;-73
2020/12/17 03:56:12;;;;;;;33.57;19.13;;;;;;;5.58;82.10;102839.38;1756699;82;21804;-73
2020/12/17 03:58:45;;;;;;;27.13;17.23;;;;;;;5.57;81.84;102832.66;1756373;82;21173;-73
2020/12/17 04:01:18;;;;;;;28.77;16.77;;;;;;;5.47;81.86;102834.22;1756638;81;21236;-72
2020/12/17 04:03:53;;;;;;;29.87;18.27;;;;;;;5.38;81.92;102825.61;1756424;82;21196;-73
2020/12/17 04:06:27;;;;;;;35.43;19.30;;;;;;;5.36;82.11;102833.70;1756569;82;21684;-80
2020/12/17 04:09:01;;;;;;;34.60;19.10;;;;;;;5.35;82.31;102828.73;1756864;82;21362;-81
2020/12/17 04:11:34;;;;;;;35.00;20.70;;;;;;;5.40;82.36;102834.58;1756782;82;21803;-80
2020/12/17 04:14:08;;;;;;;31.33;18.77;;;;;;;5.41;82.23;102823.03;1756438;81;21708;-80
2020/12/17 04:16:57;;;;;;;29.67;18.57;;;;;;;5.45;82.27;102821.66;1756383;82;21221;-80
2020/12/17 04:19:30;;;;;;;31.93;19.07;;;;;;;5.45;82.10;102817.53;1756489;81;21235;-80
2020/12/17 04:22:03;;;;;;;32.00;19.67;;;;;;;5.40;82.02;102822.69;1756499;82;21727;-74
2020/12/17 04:24:35;;;;;;;34.40;20.20;;;;;;;5.33;82.09;102825.80;1756612;82;21326;-73
2020/12/17 04:27:08;;;;;;;30.93;17.37;;;;;;;5.33;82.30;102831.31;1724669;82;21855;-74
2020/12/17 04:29:42;;;;;;;29.83;18.63;;;;;;;5.38;82.30;102828.91;1686336;85;21327;-74
2020/12/17 04:32:15;;;;;;;32.87;19.70;;;;;;;5.37;82.26;102832.70;1689466;85;21387;-73
2020/12/17 04:34:51;;;;;;;32.97;19.67;;;;;;;5.40;82.28;102839.22;1689543;85;21344;-73
2020/12/17 04:37:24;;;;;;;36.68;22.02;;;;;;;5.38;82.15;102838.01;1674222;85;21359;-80
2020/12/17 04:39:57;;;;;;;36.93;22.27;;;;;;;5.34;82.21;102838.53;1672858;85;21338;-73
2020/12/17 04:42:32;;;;;;;35.43;20.80;;;;;;;5.35;82.27;102838.88;1672950;85;21225;-73
2020/12/17 04:45:04;;;;;;;29.82;17.02;;;;;;;5.39;82.31;102833.37;1687308;85;21710;-82
2020/12/17 04:47:38;;;;;;;35.27;20.27;;;;;;;5.50;82.39;102853.67;1663863;86;21843;-80
2020/12/17 04:50:16;;;;;;;34.38;19.42;;;;;;;5.53;82.07;102854.69;1676614;85;21204;-80
2020/12/17 04:52:45;;;;;;;28.43;17.03;;;;;;;5.48;81.84;102859.35;1721394;83;21213;-73
2020/12/17 04:55:18;;;;;;;;;;;;;;;5.40;81.78;102857.12;1691780;84;21249;-80
2020/12/17 04:57:50;;;;;;;32.67;16.70;;;;;;;5.33;81.89;102854.22;1689720;85;20255;-81
2020/12/17 05:00:24;;;;;;;28.83;15.83;;;;;;;5.28;82.01;102858.50;1636478;86;21685;-80
2020/12/17 05:02:58;;;;;;;36.87;20.77;;;;;;;5.24;82.15;102857.11;1676358;85;21213;-74
2020/12/17 05:05:30;;;;;;;;;;;;;;;5.23;82.27;102865.03;1679322;84;21363;-74
2020/12/17 05:08:05;;;;;;;29.67;16.93;;;;;;;5.22;82.36;102861.95;1677034;85;20529;-72
2020/12/17 05:10:38;;;;;;;29.07;16.87;;;;;;;5.21;82.45;102869.87;1676866;85;21228;-74
2020/12/17 05:13:13;;;;;;;27.57;16.07;;;;;;;5.19;82.41;102860.39;1677040;85;21220;-75
2020/12/17 05:15:46;;;;;;;33.73;20.67;;;;;;;5.14;82.44;102869.68;1676801;84;21712;-74
2020/12/17 05:18:19;;;;;;;37.20;18.52;;;;;;;5.11;82.62;102867.28;1677102;85;21260;-75
2020/12/17 05:20:54;;;;;;;36.03;19.57;;;;;;;5.13;82.77;102868.50;1677099;85;21787;-75
2020/12/17 05:23:27;;;;;;;32.43;17.73;;;;;;;5.15;82.76;102867.80;1692010;84;21697;-74
2020/12/17 05:26:01;;;;;;;28.13;16.37;;;;;;;5.18;83.05;102866.94;1670822;85;21475;-73
2020/12/17 05:28:34;;;;;;;36.73;19.37;;;;;;;5.24;83.03;102880.52;1678210;85;21255;-75
2020/12/17 05:31:06;;;;;;;33.93;18.63;;;;;;;5.23;82.83;102876.05;1679020;85;22248;-74
2020/12/17 05:33:39;;;;;;;36.67;18.10;;;;;;;5.22;82.79;102877.09;1687122;83;22032;-75
2020/12/17 05:36:12;;;;;;;37.73;20.80;;;;;;;5.25;82.85;102878.14;1689347;85;21185;-75
2020/12/17 05:38:47;;;;;;;39.40;20.17;;;;;;;5.24;82.80;102877.27;1689360;85;21230;-74
2020/12/17 05:41:28;;;;;;;31.95;17.37;;;;;;;5.27;82.96;102876.06;1689654;85;21328;-76
2020/12/17 05:44:26;;;;;;;27.27;15.57;;;;;;;5.26;82.95;102872.97;1672983;85;21257;-75
2020/12/17 05:47:05;;;;;;;36.48;19.12;;;;;;;5.24;82.94;102875.02;1689965;84;21340;-82
2020/12/17 05:49:41;;;;;;;28.93;16.97;;;;;;;5.26;83.15;102878.48;1688018;85;21371;-76
2020/12/17 05:52:16;;;;;;;33.57;18.17;;;;;;;5.31;83.18;102878.83;1687976;85;21426;-76
2020/12/17 05:55:00;;;;;;;39.73;19.20;;;;;;;5.31;83.06;102875.54;1670814;86;21340;-75
2020/12/17 05:57:34;;;;;;;31.83;17.73;;;;;;;5.32;83.02;102878.63;1687879;85;21378;-75
2020/12/17 06:00:12;;;;;;;25.37;15.00;;;;;;;5.31;82.98;102882.42;1688022;85;21205;-76
2020/12/17 06:02:44;;;;;;;34.10;19.20;;;;;;;5.30;83.01;102884.84;1671121;86;21209;-83
2020/12/17 06:05:26;;;;;;;38.40;19.30;;;;;;;5.30;83.11;102888.09;1722647;83;21336;-82
2020/12/17 06:08:02;;;;;;;29.73;17.03;;;;;;;5.31;83.20;102887.93;1722578;83;21177;-82
2020/12/17 06:10:34;;;;;;;33.40;18.03;;;;;;;5.33;83.16;102883.64;1722753;83;21325;-82
2020/12/17 06:13:07;;;;;;;31.43;17.20;;;;;;;5.33;83.14;102883.64;1722707;83;21237;-84
2020/12/17 06:15:39;;;;;;;33.23;17.97;;;;;;;5.35;83.17;102883.81;1722531;83;21859;-81
2020/12/17 06:18:13;;;;;;;31.48;19.12;;;;;;;5.40;83.19;102881.41;1722979;83;21371;-82
2020/12/17 06:20:48;;;;;;;33.50;18.27;;;;;;;5.50;83.34;102888.95;1722827;83;21469;-75
2020/12/17 06:23:20;;;;;;;33.53;19.10;;;;;;;5.61;83.28;102889.98;1722707;83;21794;-76
2020/12/17 06:25:53;;;;;;;37.53;18.93;;;;;;;5.68;83.07;102881.89;1722494;83;21332;-75
2020/12/17 06:28:47;;;;;;;26.43;15.77;;;;;;;5.79;82.96;102892.52;1722461;83;21249;-76
2020/12/17 06:31:26;;;;;;;28.87;17.40;;;;;;;5.81;82.61;102893.27;1722530;83;21375;-77
2020/12/17 06:34:06;;;;;;;33.43;17.90;;;;;;;5.85;82.62;102888.59;1722776;83;21336;-75
2020/12/17 06:36:45;;;;;;;30.13;16.43;;;;;;;5.96;82.50;102891.48;1718096;83;21210;-75
2020/12/17 06:39:18;;;;;;;26.83;14.83;;;;;;;6.08;82.29;102892.84;1717148;83;21812;-75
2020/12/17 06:41:52;;;;;;;29.10;14.85;;;;;;;6.05;81.88;102891.83;1717410;83;21268;-75
2020/12/17 06:44:38;;;;;;;28.70;16.10;;;;;;;5.99;81.79;102887.02;1717532;83;21209;-75
2020/12/17 06:47:08;;;;;;;30.00;16.30;;;;;;;5.94;81.85;102896.33;1717154;83;21324;-81
2020/12/17 06:49:42;;;;;;;28.90;15.53;;;;;;;5.95;81.90;102895.29;1716908;81;21181;-82
2020/12/17 06:52:15;;;;;;;34.37;17.57;;;;;;;6.00;81.91;102891.48;1717487;83;21332;-83
2020/12/17 06:54:47;;;;;;;30.70;16.13;;;;;;;6.03;81.84;102893.88;1717300;83;21693;-80
2020/12/17 06:57:25;;;;;;;34.55;15.93;;;;;;;6.16;81.83;102892.83;1717355;83;21229;-82
2020/12/17 07:00:09;;;;;;;30.57;17.80;;;;;;;6.22;81.39;102901.77;1717405;83;21190;-83
2020/12/17 07:02:42;;;;;;;28.13;16.27;;;;;;;6.20;81.38;102899.19;1716747;83;21673;-83
2020/12/17 07:05:38;;;;;;;33.30;15.45;;;;;;;6.23;81.12;102900.20;1716442;83;21233;-76
2020/12/17 07:08:13;;;;;;;31.67;17.47;;;;;;;6.16;81.17;102895.05;1721204;83;21252;-75
2020/12/17 07:10:48;;;;;;;33.57;18.17;;;;;;;6.19;81.23;102898.85;1717573;83;21233;-77
2020/12/17 07:13:44;;;;;;;31.27;17.73;;;;;;;6.27;81.19;102902.95;1721623;83;21260;-76
2020/12/17 07:16:20;;;;;;;31.90;16.63;;;;;;;6.35;81.16;102903.44;1684924;84;21202;-75
2020/12/17 07:19:15;;;;;;;31.97;18.33;;;;;;;6.46;80.96;102912.69;1687019;85;21816;-75
2020/12/17 07:22:11;;;;;;;33.30;18.17;;;;;;;6.48;80.77;102918.91;1686604;85;21685;-76
2020/12/17 07:24:46;;;;;;;24.43;13.08;;;;;;;6.53;80.56;102920.61;1672348;85;21934;-74
2020/12/17 07:27:32;;;;;;;31.83;17.03;;;;;;;6.56;80.46;102926.63;1688281;85;21230;-76
2020/12/17 07:30:08;;;;;;;26.57;14.98;;;;;;;6.50;80.19;102922.33;1688515;85;21237;-75
2020/12/17 07:32:46;;;;;;;28.30;17.65;;;;;;;6.39;80.30;102915.31;1696835;83;21390;-75
2020/12/17 07:35:27;;;;;;;27.35;15.45;;;;;;;6.32;80.39;102912.06;1692305;83;21246;-75
2020/12/17 07:38:02;;;;;;;27.25;17.10;;;;;;;6.32;80.47;102912.06;1711016;83;21323;-75
2020/12/17 07:40:43;;;;;;;28.70;15.20;;;;;;;6.32;80.54;102917.08;1713874;84;21834;-75
2020/12/17 07:43:24;;;;;;;29.32;15.45;;;;;;;6.36;80.55;102918.95;1713138;84;21366;-75
2020/12/17 07:45:56;;;;;;;31.60;16.40;;;;;;;6.32;80.64;102921.20;1698158;84;21368;-81
2020/12/17 07:48:51;;;;;;;31.30;16.57;;;;;;;6.29;80.68;102923.47;1683050;85;21361;-81
2020/12/17 07:51:29;;;;;;;32.63;17.30;;;;;;;6.29;80.80;102923.47;1682984;85;21346;-83
2020/12/17 07:54:05;;;;;;;26.20;15.83;;;;;;;6.27;80.80;102922.77;1679472;85;21215;-80
2020/12/17 07:56:38;;;;;;;28.10;15.13;;;;;;;6.23;80.94;102928.31;1678654;85;21405;-85
2020/12/17 07:59:12;;;;;;;35.10;18.67;;;;;;;6.23;81.10;102926.39;1678396;85;21207;-77
2020/12/17 08:01:45;;;;;;;26.60;15.30;;;;;;;6.22;81.19;102932.11;1677937;85;21727;-76
2020/12/17 08:04:18;;;;;;;43.68;17.27;;;;;;;6.23;81.25;102925.55;1678241;85;21215;-78
2020/12/17 08:06:51;;;;;;;29.27;16.10;;;;;;;6.21;81.38;102924.84;1677256;84;21363;-76
2020/12/17 08:09:27;;;;;;;31.25;16.85;;;;;;;6.23;81.47;102925.02;1642615;87;21372;-76
2020/12/17 08:12:04;;;;;;;30.17;16.97;;;;;;;6.26;81.55;102926.56;1660164;86;21226;-76
2020/12/17 08:14:38;;;;;;;30.50;16.40;;;;;;;6.30;81.61;102921.88;1655397;86;21318;-77
2020/12/17 08:17:13;;;;;;;29.43;16.67;;;;;;;6.37;81.69;102923.42;1642740;87;21353;-77
2020/12/17 08:19:59;;;;;;;;;;;;;;;6.48;81.66;102926.64;1644712;86;21214;-77
2020/12/17 08:22:31;;;;;;;27.90;15.40;;;;;;;6.62;81.58;102918.14;1651241;84;20240;-76
2020/12/17 08:25:07;;;;;;;25.65;14.85;;;;;;;6.71;81.42;102921.22;1678515;85;21215;-76
2020/12/17 08:27:43;;;;;;;29.75;16.57;;;;;;;6.75;81.05;102914.27;1678528;85;21401;-76
2020/12/17 08:30:16;;;;;;;32.60;17.53;;;;;;;6.70;80.94;102912.56;1678438;85;21218;-74
2020/12/17 08:32:51;;;;;;;30.97;16.80;;;;;;;6.71;80.88;102909.64;1678170;85;21349;-75
2020/12/17 08:35:26;;;;;;;35.10;17.97;;;;;;;6.73;80.82;102912.22;1678508;85;21377;-74
2020/12/17 08:37:59;;;;;;;31.40;16.60;;;;;;;6.78;80.91;102907.03;1694811;82;21415;-75
2020/12/17 08:40:32;;;;;;;34.87;16.43;;;;;;;6.81;80.75;102903.38;1716910;82;21198;-75
2020/12/17 08:43:13;;;;;;;34.58;18.60;;;;;;;6.77;80.53;102896.48;1714754;83;21375;-75
2020/12/17 08:45:47;;;;;;;37.48;17.00;;;;;;;6.74;80.56;102898.25;1727325;83;21323;-75
2020/12/17 08:48:20;;;;;;;28.17;13.07;;;;;;;6.81;80.68;102896.98;1715870;83;21229;-75
2020/12/17 08:50:55;;;;;;;;;;;;;;;6.88;80.42;102901.61;1730024;81;21455;-81
2020/12/17 08:53:28;;;;;;;28.67;14.97;;;;;;;6.83;80.02;102899.91;1727529;83;20247;-74
2020/12/17 08:56:13;;;;;;;27.58;15.25;;;;;;;6.66;80.04;102900.19;1727638;83;21480;-73
2020/12/17 08:58:54;;;;;;;29.30;15.48;;;;;;;6.59;80.35;102897.82;1725597;83;21738;-83
2020/12/17 09:01:35;;;;;;;23.27;14.18;;;;;;;6.61;80.48;102899.36;1714638;83;21731;-82
2020/12/17 09:04:10;;;;;;;24.00;13.15;;;;;;;6.68;80.57;102892.58;1726510;83;21708;-83
2020/12/17 09:06:46;;;;;;;27.63;15.40;;;;;;;6.73;80.44;102897.04;1728990;83;21410;-82
2020/12/17 09:09:25;;;;;;;29.80;15.20;;;;;;;6.71;80.33;102894.45;1716652;83;21396;-80
2020/12/17 09:12:01;;;;;;;33.63;17.45;;;;;;;6.69;80.42;102892.41;1724760;83;21312;-74
2020/12/17 09:14:37;;;;;;;28.70;16.17;;;;;;;6.70;80.54;102889.11;1728802;83;21335;-75
2020/12/17 09:17:17;;;;;;;27.80;14.58;;;;;;;6.73;80.49;102884.63;1728806;83;21205;-75
2020/12/17 09:19:50;;;;;;;34.83;17.10;;;;;;;6.75;80.55;102886.67;1728777;83;21604;-75
2020/12/17 09:22:36;;;;;;;27.07;13.62;;;;;;;6.75;80.54;102888.92;1723483;82;21367;-73
2020/12/17 09:25:12;;;;;;;27.90;17.12;;;;;;;6.80;80.64;102888.38;1758267;81;21331;-81
2020/12/17 09:27:45;;;;;;;32.40;16.07;;;;;;;6.76;80.58;102883.73;1754314;80;21347;-82
2020/12/17 09:30:24;;;;;;;28.90;17.57;;;;;;;6.80;80.80;102882.84;1717189;83;21236;-81
2020/12/17 09:33:01;;;;;;;28.47;15.63;;;;;;;6.91;80.83;102886.58;1721991;83;21905;-85
2020/12/17 09:35:36;;;;;;;28.87;15.08;;;;;;;6.95;80.43;102886.02;1717008;83;21182;-81
2020/12/17 09:40:46;;;;;;;30.48;16.10;;;;;;;6.85;80.28;102889.53;1675820;85;21205;-83
2020/12/17 09:43:19;;;;;;;28.45;14.83;;;;;;;6.80;80.23;102892.00;1690677;85;21617;-82
2020/12/17 09:45:53;;;;;;;35.03;16.87;;;;;;;6.75;80.37;102890.30;1686818;85;21204;-80
2020/12/17 09:48:31;;;;;;;32.95;18.10;;;;;;;6.74;80.48;102893.23;1675250;85;21213;-81
2020/12/17 09:51:07;;;;;;;29.92;16.48;;;;;;;6.80;80.64;102888.38;1687178;83;21637;-79
2020/12/17 09:53:43;;;;;;;31.42;18.40;;;;;;;6.89;80.62;102881.23;1685829;83;21252;-82
2020/12/17 09:56:17;;;;;;;28.87;14.50;;;;;;;7.01;80.58;102891.36;1689287;85;21391;-80
2020/12/17 09:58:49;;;;;;;20.30;12.95;;;;;;;7.09;80.29;102888.53;1670998;85;21347;-75
2020/12/17 10:01:22;;;;;;;35.17;16.15;;;;;;;7.06;79.98;102881.47;1689713;85;21403;-76
2020/12/17 10:03:55;;;;;;;27.65;14.53;;;;;;;7.00;79.83;102882.70;1689400;84;21336;-75
2020/12/17 10:06:30;;;;;;;24.40;14.47;;;;;;;6.96;79.80;102884.14;1688866;85;21768;-76
2020/12/17 10:09:05;;;;;;;24.60;14.35;;;;;;;6.86;79.78;102884.88;1689926;83;21182;-80
2020/12/17 10:11:38;;;;;;;28.90;15.65;;;;;;;6.76;80.00;102875.45;1687471;85;21240;-81
2020/12/17 10:14:11;;;;;;;36.13;16.77;;;;;;;6.71;80.15;102875.67;1689441;85;21303;-81
2020/12/17 10:16:47;;;;;;;30.17;15.72;;;;;;;6.72;80.27;102869.95;1689656;85;21474;-82
2020/12/17 10:19:22;;;;;;;26.07;15.20;;;;;;;6.82;80.46;102871.09;1644070;85;100511;-82
2020/12/17 10:21:55;;;;;;;32.13;15.87;;;;;;;6.86;80.25;102868.31;1655112;86;21257;-82
2020/12/17 10:24:29;;;;;;;33.60;17.50;;;;;;;6.90;80.27;102871.06;1688244;85;21210;-75
2020/12/17 10:27:03;;;;;;;25.15;13.00;;;;;;;6.91;80.15;102865.88;1685874;85;21727;-83
2020/12/17 10:29:35;;;;;;;33.53;14.90;;;;;;;6.88;80.05;102864.84;1691539;85;21356;-78
2020/12/17 10:32:10;;;;;;;25.00;13.75;;;;;;;6.83;80.13;102856.27;1695233;85;21395;-84
2020/12/17 10:34:43;;;;;;;26.33;14.80;;;;;;;6.82;80.20;102865.56;1692984;85;21582;-80
2020/12/17 10:37:25;;;;;;;29.60;14.83;;;;;;;6.82;80.28;102866.95;1693393;85;22477;-75
2020/12/17 10:40:00;;;;;;;26.30;14.25;;;;;;;6.82;80.28;102863.68;1690924;84;21232;-84
2020/12/17 10:42:33;;;;;;;24.90;14.53;;;;;;;6.77;80.23;102853.70;1687839;85;21232;-79
2020/12/17 10:45:07;;;;;;;21.25;13.32;;;;;;;6.71;80.33;102857.73;1650869;87;21202;-80
2020/12/17 10:47:44;;;;;;;33.10;14.83;;;;;;;6.71;80.49;102851.67;1650681;87;21229;-73
2020/12/17 10:50:19;;;;;;;28.90;16.48;;;;;;;6.70;80.59;102850.46;1650794;87;21716;-75
2020/12/17 10:52:58;;;;;;;26.77;13.88;;;;;;;6.71;80.62;102851.67;1650996;87;21835;-78
2020/12/17 10:55:36;;;;;;;27.47;14.77;;;;;;;6.82;80.73;102847.63;1650969;87;21367;-82
2020/12/17 10:58:12;;;;;;;25.70;14.13;;;;;;;6.83;80.46;102841.09;1650803;87;21261;-81
2020/12/17 11:00:48;;;;;;;27.67;15.95;;;;;;;6.83;80.51;102840.55;1650968;87;21214;-76
2020/12/17 11:03:21;;;;;;;32.15;16.05;;;;;;;6.88;80.50;102835.34;1650926;87;21218;-76
2020/12/17 11:05:56;;;;;;;29.30;15.45;;;;;;;6.96;80.50;102845.48;1653469;85;21210;-76
2020/12/17 11:08:28;;;;;;;32.20;14.95;;;;;;;6.98;80.31;102842.88;1686364;85;21723;-74
2020/12/17 11:11:04;;;;;;;27.48;14.68;;;;;;;6.96;80.20;102838.58;1686461;85;21701;-76
2020/12/17 11:13:37;;;;;;;27.00;15.60;;;;;;;6.92;80.25;102839.47;1659539;85;21225;-82
2020/12/17 11:16:10;;;;;;;28.53;16.53;;;;;;;6.94;80.38;102837.37;1686535;85;21217;-76
2020/12/17 11:18:43;;;;;;;30.45;17.67;;;;;;;6.97;80.34;102837.53;1685827;85;21318;-78
2020/12/17 11:21:23;;;;;;;33.75;17.77;;;;;;;6.94;80.17;102837.37;1686552;85;21696;-77
2020/12/17 11:23:55;;;;;;;28.17;15.45;;;;;;;6.87;80.22;102837.77;1686494;85;21225;-76
2020/12/17 11:26:32;;;;;;;32.38;17.80;;;;;;;6.85;80.43;102834.85;1687138;85;21198;-77
2020/12/17 11:29:05;;;;;;;32.27;17.83;;;;;;;6.85;80.54;102833.47;1687103;85;21225;-77
2020/12/17 11:31:39;;;;;;;31.68;16.82;;;;;;;6.86;80.51;102837.95;1673065;85;21738;-77
2020/12/17 11:34:13;;;;;;;34.67;17.37;;;;;;;6.85;80.67;102836.23;1678124;85;21263;-75
2020/12/17 11:36:46;;;;;;;;;;;;;;;6.85;80.65;102837.07;1667938;85;21233;-75
2020/12/17 11:39:18;;;;;;;29.85;15.40;;;;;;;6.86;80.67;102837.95;1661010;86;20195;-75
2020/12/17 11:41:50;;;;;;;30.00;16.45;;;;;;;6.86;80.73;102836.56;1665380;85;21264;-75
2020/12/17 11:44:25;;;;;;;28.97;15.47;;;;;;;6.88;80.76;102835.34;1670410;86;21416;-83
2020/12/17 11:46:58;;;;;;;31.52;16.45;;;;;;;6.92;80.71;102838.09;1670675;86;21400;-76
2020/12/17 11:49:30;;;;;;;26.77;15.73;;;;;;;6.90;80.55;102836.01;1671872;86;21367;-76
2020/12/17 11:52:03;;;;;;;27.77;15.17;;;;;;;6.88;80.51;102831.20;1693359;85;21863;-77
2020/12/17 11:54:36;;;;;;;25.52;14.60;;;;;;;6.88;80.44;102833.96;1665006;86;21760;-82
2020/12/17 11:57:09;;;;;;;33.43;16.13;;;;;;;6.83;80.38;102832.80;1669709;86;21340;-80
2020/12/17 11:59:51;;;;;;;35.25;17.10;;;;;;;6.76;80.47;102837.31;1616202;87;21335;-83